KPRC

Ernest A Love Field Airport

Prescott, Arizona, USA
METAR KPRC 230453Z 00000KT 10SM CLR 09/07 A3007 RMK AO2 SLP132 T00940067
Observed Flight Rules
Oct-23 @ 04:53 UTC (44 minutes ago) Visual Flight Rules
Visibility Clouds
10 miles
  • Clear skies
Temperatures Readings
Current 9°C / 48°F
Dewpoint 7°C / 45°F
Humidity 87%
Altimeter 30.07" Hg
Pressure 1013.2 hPa
Elevation 1524
METAR KPRC 230453Z 00000KT 10SM CLR 09/07 A3007 RMK AO2 SLP132 T00940067
Observed Flight Rules
Oct-23 @ 04:53 UTC
(44 minutes ago)
VFR
Clouds
  • Clear skies
Temperature Dewpoint
9°C / 48°F 7°C / 45°F
Humidity Altimeter Pressure
87% 30.07" Hg 1013.2 hPa